sensor_id;sensor_type;location;lat;lon;timestamp;P1;durP1;ratioP1;P2;durP2;ratioP2
15258;SDS011;34462;51.368;12.364;2022-08-02T00:00:56;3.22;;;2.42;;
15258;SDS011;34462;51.368;12.364;2022-08-02T00:03:24;3.08;;;2.35;;
15258;SDS011;34462;51.368;12.364;2022-08-02T00:05:53;4.78;;;2.50;;
15258;SDS011;34462;51.368;12.364;2022-08-02T00:08:21;5.05;;;2.15;;
15258;SDS011;34462;51.368;12.364;2022-08-02T00:10:49;2.35;;;2.00;;
15258;SDS011;34462;51.368;12.364;2022-08-02T00:13:19;2.72;;;2.40;;
15258;SDS011;34462;51.368;12.364;2022-08-02T00:15:47;3.15;;;2.25;;
15258;SDS011;34462;51.368;12.364;2022-08-02T00:18:15;3.10;;;2.28;;
15258;SDS011;34462;51.368;12.364;2022-08-02T00:20:43;4.53;;;2.53;;
15258;SDS011;34462;51.368;12.364;2022-08-02T00:23:11;3.72;;;2.70;;
15258;SDS011;34462;51.368;12.364;2022-08-02T00:25:39;6.63;;;2.60;;
15258;SDS011;34462;51.368;12.364;2022-08-02T00:28:22;3.13;;;2.60;;
15258;SDS011;34462;51.368;12.364;2022-08-02T00:30:53;2.58;;;2.38;;
15258;SDS011;34462;51.368;12.364;2022-08-02T00:33:22;3.53;;;2.42;;
15258;SDS011;34462;51.368;12.364;2022-08-02T00:36:11;4.57;;;2.97;;
15258;SDS011;34462;51.368;12.364;2022-08-02T00:38:39;4.63;;;2.88;;
15258;SDS011;34462;51.368;12.364;2022-08-02T00:41:12;3.40;;;2.75;;
15258;SDS011;34462;51.368;12.364;2022-08-02T00:43:44;2.70;;;2.50;;
15258;SDS011;34462;51.368;12.364;2022-08-02T00:46:14;5.07;;;2.88;;
15258;SDS011;34462;51.368;12.364;2022-08-02T00:48:46;3.25;;;2.50;;
15258;SDS011;34462;51.368;12.364;2022-08-02T00:51:16;5.85;;;2.40;;
15258;SDS011;34462;51.368;12.364;2022-08-02T00:53:44;4.65;;;2.50;;
15258;SDS011;34462;51.368;12.364;2022-08-02T00:56:12;4.90;;;2.90;;
15258;SDS011;34462;51.368;12.364;2022-08-02T00:58:40;4.15;;;2.75;;
15258;SDS011;34462;51.368;12.364;2022-08-02T01:01:09;5.10;;;2.80;;
15258;SDS011;34462;51.368;12.364;2022-08-02T01:03:38;3.30;;;2.60;;
15258;SDS011;34462;51.368;12.364;2022-08-02T01:06:06;3.40;;;2.50;;
15258;SDS011;34462;51.368;12.364;2022-08-02T01:08:36;2.85;;;2.65;;
15258;SDS011;34462;51.368;12.364;2022-08-02T01:11:05;3.72;;;2.70;;
15258;SDS011;34462;51.368;12.364;2022-08-02T01:13:34;3.63;;;2.60;;
15258;SDS011;34462;51.368;12.364;2022-08-02T01:16:03;2.63;;;2.42;;
15258;SDS011;34462;51.368;12.364;2022-08-02T01:18:44;4.95;;;2.72;;
15258;SDS011;34462;51.368;12.364;2022-08-02T01:21:28;2.80;;;2.45;;
15258;SDS011;34462;51.368;12.364;2022-08-02T01:24:11;3.47;;;2.30;;
15258;SDS011;34462;51.368;12.364;2022-08-02T01:26:51;3.05;;;2.53;;
15258;SDS011;34462;51.368;12.364;2022-08-02T01:29:34;2.53;;;2.33;;
15258;SDS011;34462;51.368;12.364;2022-08-02T01:32:10;3.08;;;2.20;;
15258;SDS011;34462;51.368;12.364;2022-08-02T01:34:43;4.10;;;2.50;;
15258;SDS011;34462;51.368;12.364;2022-08-02T01:37:20;4.63;;;2.60;;
15258;SDS011;34462;51.368;12.364;2022-08-02T01:39:54;3.97;;;2.60;;
15258;SDS011;34462;51.368;12.364;2022-08-02T01:42:28;3.42;;;2.47;;
15258;SDS011;34462;51.368;12.364;2022-08-02T01:45:00;3.72;;;2.47;;
15258;SDS011;34462;51.368;12.364;2022-08-02T01:47:32;5.10;;;2.67;;
15258;SDS011;34462;51.368;12.364;2022-08-02T01:50:06;3.63;;;2.72;;
15258;SDS011;34462;51.368;12.364;2022-08-02T01:52:40;4.80;;;2.50;;
15258;SDS011;34462;51.368;12.364;2022-08-02T01:55:20;3.35;;;2.70;;
15258;SDS011;34462;51.368;12.364;2022-08-02T01:58:13;5.53;;;2.90;;
15258;SDS011;34462;51.368;12.364;2022-08-02T02:00:46;3.30;;;2.47;;
15258;SDS011;34462;51.368;12.364;2022-08-02T02:03:18;5.97;;;2.80;;
15258;SDS011;34462;51.368;12.364;2022-08-02T02:05:50;3.60;;;2.70;;
15258;SDS011;34462;51.368;12.364;2022-08-02T02:08:22;2.72;;;2.33;;
15258;SDS011;34462;51.368;12.364;2022-08-02T02:10:54;2.58;;;2.30;;
15258;SDS011;34462;51.368;12.364;2022-08-02T02:13:44;3.08;;;2.17;;
15258;SDS011;34462;51.368;12.364;2022-08-02T02:16:17;2.80;;;2.40;;
15258;SDS011;34462;51.368;12.364;2022-08-02T02:18:48;5.03;;;2.30;;
15258;SDS011;34462;51.368;12.364;2022-08-02T02:21:19;5.20;;;2.58;;
15258;SDS011;34462;51.368;12.364;2022-08-02T02:23:48;2.92;;;2.47;;
15258;SDS011;34462;51.368;12.364;2022-08-02T02:26:16;2.85;;;2.40;;
15258;SDS011;34462;51.368;12.364;2022-08-02T02:28:56;3.20;;;2.50;;
15258;SDS011;34462;51.368;12.364;2022-08-02T02:31:30;6.97;;;2.78;;
15258;SDS011;34462;51.368;12.364;2022-08-02T02:34:03;5.45;;;2.70;;
15258;SDS011;34462;51.368;12.364;2022-08-02T02:36:36;4.47;;;2.85;;
15258;SDS011;34462;51.368;12.364;2022-08-02T02:39:08;4.93;;;2.75;;
15258;SDS011;34462;51.368;12.364;2022-08-02T02:41:40;3.88;;;2.53;;
15258;SDS011;34462;51.368;12.364;2022-08-02T02:44:12;4.43;;;2.50;;
15258;SDS011;34462;51.368;12.364;2022-08-02T02:46:47;5.55;;;2.70;;
15258;SDS011;34462;51.368;12.364;2022-08-02T02:49:19;3.97;;;2.55;;
15258;SDS011;34462;51.368;12.364;2022-08-02T02:51:49;4.50;;;2.53;;
15258;SDS011;34462;51.368;12.364;2022-08-02T02:54:19;3.97;;;2.45;;
15258;SDS011;34462;51.368;12.364;2022-08-02T02:57:00;4.18;;;2.60;;
15258;SDS011;34462;51.368;12.364;2022-08-02T02:59:31;2.75;;;2.20;;
15258;SDS011;34462;51.368;12.364;2022-08-02T03:02:09;5.90;;;2.83;;
15258;SDS011;34462;51.368;12.364;2022-08-02T03:04:39;5.57;;;2.42;;
15258;SDS011;34462;51.368;12.364;2022-08-02T03:07:21;4.65;;;2.65;;
15258;SDS011;34462;51.368;12.364;2022-08-02T03:09:50;5.95;;;2.70;;
15258;SDS011;34462;51.368;12.364;2022-08-02T03:12:20;2.53;;;2.20;;
15258;SDS011;34462;51.368;12.364;2022-08-02T03:14:57;4.93;;;2.63;;
15258;SDS011;34462;51.368;12.364;2022-08-02T03:17:37;4.93;;;2.45;;
15258;SDS011;34462;51.368;12.364;2022-08-02T03:20:09;5.47;;;2.67;;
15258;SDS011;34462;51.368;12.364;2022-08-02T03:22:39;7.97;;;2.78;;
15258;SDS011;34462;51.368;12.364;2022-08-02T03:25:08;4.45;;;2.50;;
15258;SDS011;34462;51.368;12.364;2022-08-02T03:27:38;4.85;;;2.30;;
15258;SDS011;34462;51.368;12.364;2022-08-02T03:30:08;4.60;;;2.53;;
15258;SDS011;34462;51.368;12.364;2022-08-02T03:32:42;5.13;;;2.35;;
15258;SDS011;34462;51.368;12.364;2022-08-02T03:35:13;7.93;;;2.80;;
15258;SDS011;34462;51.368;12.364;2022-08-02T03:37:49;3.72;;;2.60;;
15258;SDS011;34462;51.368;12.364;2022-08-02T03:40:22;3.80;;;2.70;;
15258;SDS011;34462;51.368;12.364;2022-08-02T03:42:53;4.78;;;2.70;;
15258;SDS011;34462;51.368;12.364;2022-08-02T03:45:23;2.85;;;2.22;;
15258;SDS011;34462;51.368;12.364;2022-08-02T03:47:53;4.57;;;2.95;;
15258;SDS011;34462;51.368;12.364;2022-08-02T03:50:24;5.07;;;3.00;;
15258;SDS011;34462;51.368;12.364;2022-08-02T03:52:54;5.70;;;3.00;;
15258;SDS011;34462;51.368;12.364;2022-08-02T03:55:23;5.32;;;3.00;;
15258;SDS011;34462;51.368;12.364;2022-08-02T03:57:51;7.60;;;3.58;;
15258;SDS011;34462;51.368;12.364;2022-08-02T04:00:20;5.15;;;3.00;;
15258;SDS011;34462;51.368;12.364;2022-08-02T04:02:49;4.30;;;3.13;;
15258;SDS011;34462;51.368;12.364;2022-08-02T04:05:19;5.80;;;3.38;;
15258;SDS011;34462;51.368;12.364;2022-08-02T04:07:47;4.70;;;3.20;;
15258;SDS011;34462;51.368;12.364;2022-08-02T04:10:36;5.10;;;3.00;;
15258;SDS011;34462;51.368;12.364;2022-08-02T04:13:19;4.78;;;2.92;;
15258;SDS011;34462;51.368;12.364;2022-08-02T04:15:56;4.80;;;2.90;;
15258;SDS011;34462;51.368;12.364;2022-08-02T04:18:33;5.28;;;3.45;;
15258;SDS011;34462;51.368;12.364;2022-08-02T04:21:08;4.50;;;3.20;;
15258;SDS011;34462;51.368;12.364;2022-08-02T04:23:42;4.10;;;3.10;;
15258;SDS011;34462;51.368;12.364;2022-08-02T04:26:14;6.00;;;3.47;;
15258;SDS011;34462;51.368;12.364;2022-08-02T04:28:52;6.57;;;2.88;;
15258;SDS011;34462;51.368;12.364;2022-08-02T04:31:22;6.45;;;3.00;;
15258;SDS011;34462;51.368;12.364;2022-08-02T04:33:50;5.47;;;3.40;;
15258;SDS011;34462;51.368;12.364;2022-08-02T04:36:20;5.20;;;3.03;;
15258;SDS011;34462;51.368;12.364;2022-08-02T04:38:57;4.68;;;2.67;;
15258;SDS011;34462;51.368;12.364;2022-08-02T04:41:35;4.65;;;2.80;;
15258;SDS011;34462;51.368;12.364;2022-08-02T04:44:09;6.03;;;3.00;;
15258;SDS011;34462;51.368;12.364;2022-08-02T04:46:38;5.50;;;2.72;;
15258;SDS011;34462;51.368;12.364;2022-08-02T04:49:07;6.25;;;3.13;;
15258;SDS011;34462;51.368;12.364;2022-08-02T04:51:37;3.50;;;2.70;;
15258;SDS011;34462;51.368;12.364;2022-08-02T04:54:07;4.65;;;2.92;;
15258;SDS011;34462;51.368;12.364;2022-08-02T04:56:37;4.15;;;2.72;;
15258;SDS011;34462;51.368;12.364;2022-08-02T04:59:05;4.95;;;3.38;;
15258;SDS011;34462;51.368;12.364;2022-08-02T05:01:34;4.45;;;2.60;;
15258;SDS011;34462;51.368;12.364;2022-08-02T05:04:02;3.13;;;2.40;;
15258;SDS011;34462;51.368;12.364;2022-08-02T05:06:30;6.80;;;3.00;;
15258;SDS011;34462;51.368;12.364;2022-08-02T05:09:00;2.95;;;2.40;;
15258;SDS011;34462;51.368;12.364;2022-08-02T05:11:28;8.55;;;2.95;;
15258;SDS011;34462;51.368;12.364;2022-08-02T05:14:02;5.25;;;2.42;;
15258;SDS011;34462;51.368;12.364;2022-08-02T05:16:31;4.60;;;2.40;;
15258;SDS011;34462;51.368;12.364;2022-08-02T05:18:59;3.97;;;2.45;;
15258;SDS011;34462;51.368;12.364;2022-08-02T05:21:28;3.92;;;2.40;;
15258;SDS011;34462;51.368;12.364;2022-08-02T05:23:57;4.95;;;2.78;;
15258;SDS011;34462;51.368;12.364;2022-08-02T05:26:26;3.30;;;2.55;;
15258;SDS011;34462;51.368;12.364;2022-08-02T05:28:55;3.17;;;2.50;;
15258;SDS011;34462;51.368;12.364;2022-08-02T05:31:23;3.88;;;2.25;;
15258;SDS011;34462;51.368;12.364;2022-08-02T05:33:51;4.10;;;2.50;;
15258;SDS011;34462;51.368;12.364;2022-08-02T05:36:19;4.13;;;2.40;;
15258;SDS011;34462;51.368;12.364;2022-08-02T05:38:49;4.88;;;2.30;;
15258;SDS011;34462;51.368;12.364;2022-08-02T05:41:26;4.03;;;2.67;;
15258;SDS011;34462;51.368;12.364;2022-08-02T05:43:54;3.10;;;2.35;;
15258;SDS011;34462;51.368;12.364;2022-08-02T05:46:22;5.75;;;2.20;;
15258;SDS011;34462;51.368;12.364;2022-08-02T05:48:50;4.40;;;2.40;;
15258;SDS011;34462;51.368;12.364;2022-08-02T05:51:19;4.22;;;2.60;;
15258;SDS011;34462;51.368;12.364;2022-08-02T05:53:59;4.70;;;2.33;;
15258;SDS011;34462;51.368;12.364;2022-08-02T05:56:44;4.15;;;2.33;;
15258;SDS011;34462;51.368;12.364;2022-08-02T05:59:20;5.60;;;2.50;;
15258;SDS011;34462;51.368;12.364;2022-08-02T06:02:01;5.93;;;2.42;;
15258;SDS011;34462;51.368;12.364;2022-08-02T06:04:47;4.00;;;2.05;;
15258;SDS011;34462;51.368;12.364;2022-08-02T06:07:25;4.78;;;2.13;;
15258;SDS011;34462;51.368;12.364;2022-08-02T06:09:55;5.90;;;2.80;;
15258;SDS011;34462;51.368;12.364;2022-08-02T06:12:26;7.70;;;3.10;;
15258;SDS011;34462;51.368;12.364;2022-08-02T06:14:59;4.45;;;2.30;;
15258;SDS011;34462;51.368;12.364;2022-08-02T06:17:30;6.35;;;2.85;;
15258;SDS011;34462;51.368;12.364;2022-08-02T06:19:59;6.50;;;2.78;;
15258;SDS011;34462;51.368;12.364;2022-08-02T06:22:28;3.45;;;2.20;;
15258;SDS011;34462;51.368;12.364;2022-08-02T06:25:03;5.32;;;2.33;;
15258;SDS011;34462;51.368;12.364;2022-08-02T06:27:54;3.30;;;2.05;;
15258;SDS011;34462;51.368;12.364;2022-08-02T06:30:24;4.05;;;2.35;;
15258;SDS011;34462;51.368;12.364;2022-08-02T06:32:53;5.72;;;2.05;;
15258;SDS011;34462;51.368;12.364;2022-08-02T06:35:21;3.80;;;1.90;;
15258;SDS011;34462;51.368;12.364;2022-08-02T06:37:58;3.53;;;2.28;;
15258;SDS011;34462;51.368;12.364;2022-08-02T06:40:29;4.07;;;2.28;;
15258;SDS011;34462;51.368;12.364;2022-08-02T06:43:08;4.05;;;2.20;;
15258;SDS011;34462;51.368;12.364;2022-08-02T06:45:39;3.42;;;2.40;;
15258;SDS011;34462;51.368;12.364;2022-08-02T06:48:08;3.90;;;2.40;;
15258;SDS011;34462;51.368;12.364;2022-08-02T06:50:37;6.72;;;2.40;;
15258;SDS011;34462;51.368;12.364;2022-08-02T06:53:07;4.28;;;2.17;;
15258;SDS011;34462;51.368;12.364;2022-08-02T06:55:36;4.60;;;2.10;;
15258;SDS011;34462;51.368;12.364;2022-08-02T06:58:11;3.90;;;2.30;;
15258;SDS011;34462;51.368;12.364;2022-08-02T07:00:40;5.43;;;2.40;;
15258;SDS011;34462;51.368;12.364;2022-08-02T07:03:09;4.53;;;2.05;;
15258;SDS011;34462;51.368;12.364;2022-08-02T07:05:37;3.05;;;1.80;;
15258;SDS011;34462;51.368;12.364;2022-08-02T07:08:06;4.10;;;2.00;;
15258;SDS011;34462;51.368;12.364;2022-08-02T07:10:35;3.22;;;2.03;;
15258;SDS011;34462;51.368;12.364;2022-08-02T07:13:03;4.18;;;2.08;;
15258;SDS011;34462;51.368;12.364;2022-08-02T07:15:32;4.25;;;2.13;;
15258;SDS011;34462;51.368;12.364;2022-08-02T07:18:00;4.43;;;2.20;;
15258;SDS011;34462;51.368;12.364;2022-08-02T07:20:28;2.20;;;1.85;;
15258;SDS011;34462;51.368;12.364;2022-08-02T07:22:57;6.35;;;2.13;;
15258;SDS011;34462;51.368;12.364;2022-08-02T07:25:25;4.95;;;1.98;;
15258;SDS011;34462;51.368;12.364;2022-08-02T07:28:14;5.45;;;2.30;;
15258;SDS011;34462;51.368;12.364;2022-08-02T07:30:50;3.20;;;1.75;;
15258;SDS011;34462;51.368;12.364;2022-08-02T07:33:18;7.20;;;2.40;;
15258;SDS011;34462;51.368;12.364;2022-08-02T07:36:04;5.25;;;2.28;;
15258;SDS011;34462;51.368;12.364;2022-08-02T07:38:42;5.43;;;2.20;;
15258;SDS011;34462;51.368;12.364;2022-08-02T07:41:10;5.85;;;2.22;;
15258;SDS011;34462;51.368;12.364;2022-08-02T07:43:38;3.58;;;1.48;;
15258;SDS011;34462;51.368;12.364;2022-08-02T07:46:08;3.78;;;2.05;;
15258;SDS011;34462;51.368;12.364;2022-08-02T07:48:36;5.38;;;2.60;;
15258;SDS011;34462;51.368;12.364;2022-08-02T07:51:04;4.47;;;1.90;;
15258;SDS011;34462;51.368;12.364;2022-08-02T07:53:32;3.40;;;2.00;;
15258;SDS011;34462;51.368;12.364;2022-08-02T07:56:16;3.75;;;2.13;;
15258;SDS011;34462;51.368;12.364;2022-08-02T07:58:44;3.30;;;2.25;;
15258;SDS011;34462;51.368;12.364;2022-08-02T08:01:14;2.60;;;1.90;;
15258;SDS011;34462;51.368;12.364;2022-08-02T08:03:42;5.57;;;2.22;;
15258;SDS011;34462;51.368;12.364;2022-08-02T08:06:10;4.13;;;2.17;;
15258;SDS011;34462;51.368;12.364;2022-08-02T08:08:41;5.45;;;2.20;;
15258;SDS011;34462;51.368;12.364;2022-08-02T08:11:09;4.03;;;2.38;;
15258;SDS011;34462;51.368;12.364;2022-08-02T08:13:37;3.45;;;2.00;;
15258;SDS011;34462;51.368;12.364;2022-08-02T08:16:06;4.57;;;2.30;;
15258;SDS011;34462;51.368;12.364;2022-08-02T08:18:35;4.63;;;1.85;;
15258;SDS011;34462;51.368;12.364;2022-08-02T08:21:03;4.80;;;1.83;;
15258;SDS011;34462;51.368;12.364;2022-08-02T08:23:32;5.45;;;2.20;;
15258;SDS011;34462;51.368;12.364;2022-08-02T08:26:00;4.00;;;2.22;;
15258;SDS011;34462;51.368;12.364;2022-08-02T08:28:29;4.15;;;2.20;;
15258;SDS011;34462;51.368;12.364;2022-08-02T08:30:58;4.20;;;2.20;;
15258;SDS011;34462;51.368;12.364;2022-08-02T08:33:26;4.07;;;2.33;;
15258;SDS011;34462;51.368;12.364;2022-08-02T08:35:56;7.30;;;2.53;;
15258;SDS011;34462;51.368;12.364;2022-08-02T08:38:27;5.90;;;2.10;;
15258;SDS011;34462;51.368;12.364;2022-08-02T08:40:56;5.15;;;2.53;;
15258;SDS011;34462;51.368;12.364;2022-08-02T08:43:24;4.78;;;2.35;;
15258;SDS011;34462;51.368;12.364;2022-08-02T08:45:53;3.50;;;2.05;;
15258;SDS011;34462;51.368;12.364;2022-08-02T08:48:21;3.08;;;2.30;;
15258;SDS011;34462;51.368;12.364;2022-08-02T08:50:59;5.95;;;2.20;;
15258;SDS011;34462;51.368;12.364;2022-08-02T08:53:38;2.78;;;2.20;;
15258;SDS011;34462;51.368;12.364;2022-08-02T08:56:10;6.22;;;2.40;;
15258;SDS011;34462;51.368;12.364;2022-08-02T08:58:42;3.47;;;2.28;;
15258;SDS011;34462;51.368;12.364;2022-08-02T09:01:12;2.67;;;1.95;;
15258;SDS011;34462;51.368;12.364;2022-08-02T09:03:43;5.32;;;2.47;;
15258;SDS011;34462;51.368;12.364;2022-08-02T09:06:13;4.28;;;2.40;;
15258;SDS011;34462;51.368;12.364;2022-08-02T09:08:41;2.97;;;2.15;;
15258;SDS011;34462;51.368;12.364;2022-08-02T09:11:13;4.55;;;2.40;;
15258;SDS011;34462;51.368;12.364;2022-08-02T09:13:50;4.25;;;2.42;;
15258;SDS011;34462;51.368;12.364;2022-08-02T09:16:27;5.20;;;2.55;;
15258;SDS011;34462;51.368;12.364;2022-08-02T09:18:58;3.33;;;2.30;;
15258;SDS011;34462;51.368;12.364;2022-08-02T09:21:35;4.90;;;2.30;;
15258;SDS011;34462;51.368;12.364;2022-08-02T09:24:13;4.00;;;2.40;;
15258;SDS011;34462;51.368;12.364;2022-08-02T09:26:44;4.40;;;2.40;;
15258;SDS011;34462;51.368;12.364;2022-08-02T09:29:14;4.85;;;2.90;;
15258;SDS011;34462;51.368;12.364;2022-08-02T09:31:46;3.15;;;2.20;;
15258;SDS011;34462;51.368;12.364;2022-08-02T09:34:15;4.63;;;2.50;;
15258;SDS011;34462;51.368;12.364;2022-08-02T09:36:46;5.45;;;2.97;;
15258;SDS011;34462;51.368;12.364;2022-08-02T09:39:20;3.17;;;2.83;;
15258;SDS011;34462;51.368;12.364;2022-08-02T09:41:51;3.83;;;2.90;;
15258;SDS011;34462;51.368;12.364;2022-08-02T09:44:33;6.90;;;2.97;;
15258;SDS011;34462;51.368;12.364;2022-08-02T09:47:01;3.78;;;2.70;;
15258;SDS011;34462;51.368;12.364;2022-08-02T09:49:44;5.68;;;3.13;;
15258;SDS011;34462;51.368;12.364;2022-08-02T09:52:22;5.45;;;2.72;;
15258;SDS011;34462;51.368;12.364;2022-08-02T09:55:08;4.93;;;3.25;;
15258;SDS011;34462;51.368;12.364;2022-08-02T09:57:38;8.77;;;4.45;;
15258;SDS011;34462;51.368;12.364;2022-08-02T10:00:07;4.68;;;2.88;;
15258;SDS011;34462;51.368;12.364;2022-08-02T10:05:46;4.68;;;2.85;;
15258;SDS011;34462;51.368;12.364;2022-08-02T10:08:30;4.50;;;2.75;;
15258;SDS011;34462;51.368;12.364;2022-08-02T10:10:59;4.15;;;2.67;;
15258;SDS011;34462;51.368;12.364;2022-08-02T10:13:29;3.83;;;2.50;;
15258;SDS011;34462;51.368;12.364;2022-08-02T10:15:59;4.97;;;2.80;;
15258;SDS011;34462;51.368;12.364;2022-08-02T10:18:28;2.58;;;2.38;;
15258;SDS011;34462;51.368;12.364;2022-08-02T10:21:12;2.97;;;2.22;;
15258;SDS011;34462;51.368;12.364;2022-08-02T10:23:47;3.67;;;2.60;;
15258;SDS011;34462;51.368;12.364;2022-08-02T10:26:18;3.78;;;2.63;;
15258;SDS011;34462;51.368;12.364;2022-08-02T10:28:47;4.28;;;2.70;;
15258;SDS011;34462;51.368;12.364;2022-08-02T10:31:18;3.65;;;2.58;;
15258;SDS011;34462;51.368;12.364;2022-08-02T10:33:51;6.22;;;2.60;;
15258;SDS011;34462;51.368;12.364;2022-08-02T10:36:24;3.17;;;2.88;;
15258;SDS011;34462;51.368;12.364;2022-08-02T10:38:57;3.38;;;2.95;;
15258;SDS011;34462;51.368;12.364;2022-08-02T10:41:44;3.30;;;2.88;;
15258;SDS011;34462;51.368;12.364;2022-08-02T10:44:21;5.55;;;2.80;;
15258;SDS011;34462;51.368;12.364;2022-08-02T10:47:17;5.00;;;2.88;;
15258;SDS011;34462;51.368;12.364;2022-08-02T10:49:49;3.58;;;2.72;;
15258;SDS011;34462;51.368;12.364;2022-08-02T10:52:21;5.03;;;2.80;;
15258;SDS011;34462;51.368;12.364;2022-08-02T10:54:54;5.93;;;2.60;;
15258;SDS011;34462;51.368;12.364;2022-08-02T10:57:25;3.55;;;2.60;;
15258;SDS011;34462;51.368;12.364;2022-08-02T10:59:56;3.15;;;2.35;;
15258;SDS011;34462;51.368;12.364;2022-08-02T11:02:35;3.03;;;2.75;;
15258;SDS011;34462;51.368;12.364;2022-08-02T11:05:09;3.72;;;2.80;;
15258;SDS011;34462;51.368;12.364;2022-08-02T11:07:42;6.53;;;3.50;;
15258;SDS011;34462;51.368;12.364;2022-08-02T11:10:29;3.65;;;2.50;;
15258;SDS011;34462;51.368;12.364;2022-08-02T11:13:04;3.17;;;2.50;;
15258;SDS011;34462;51.368;12.364;2022-08-02T11:15:54;6.15;;;3.00;;
15258;SDS011;34462;51.368;12.364;2022-08-02T11:21:32;3.35;;;2.70;;
15258;SDS011;34462;51.368;12.364;2022-08-02T11:26:56;3.17;;;2.70;;
15258;SDS011;34462;51.368;12.364;2022-08-02T11:29:32;2.40;;;2.20;;
15258;SDS011;34462;51.368;12.364;2022-08-02T11:32:05;3.35;;;2.85;;
15258;SDS011;34462;51.368;12.364;2022-08-02T11:34:35;4.43;;;3.03;;
15258;SDS011;34462;51.368;12.364;2022-08-02T11:37:05;2.95;;;2.40;;
15258;SDS011;34462;51.368;12.364;2022-08-02T11:39:34;3.45;;;2.45;;
15258;SDS011;34462;51.368;12.364;2022-08-02T11:42:03;3.85;;;2.70;;
15258;SDS011;34462;51.368;12.364;2022-08-02T11:44:38;3.85;;;2.58;;
15258;SDS011;34462;51.368;12.364;2022-08-02T11:47:07;2.92;;;2.20;;
15258;SDS011;34462;51.368;12.364;2022-08-02T11:49:36;3.55;;;2.60;;
15258;SDS011;34462;51.368;12.364;2022-08-02T11:52:05;2.60;;;2.40;;
15258;SDS011;34462;51.368;12.364;2022-08-02T11:54:37;4.28;;;2.42;;
15258;SDS011;34462;51.368;12.364;2022-08-02T11:57:12;3.75;;;2.50;;
15258;SDS011;34462;51.368;12.364;2022-08-02T11:59:47;2.88;;;2.50;;
15258;SDS011;34462;51.368;12.364;2022-08-02T12:02:17;2.90;;;2.40;;
15258;SDS011;34462;51.368;12.364;2022-08-02T12:04:52;2.75;;;2.13;;
15258;SDS011;34462;51.368;12.364;2022-08-02T12:07:27;6.32;;;2.38;;
15258;SDS011;34462;51.368;12.364;2022-08-02T12:10:03;2.50;;;2.30;;
15258;SDS011;34462;51.368;12.364;2022-08-02T12:12:46;4.18;;;2.33;;
15258;SDS011;34462;51.368;12.364;2022-08-02T12:15:27;3.30;;;2.40;;
15258;SDS011;34462;51.368;12.364;2022-08-02T12:17:57;4.53;;;2.30;;
15258;SDS011;34462;51.368;12.364;2022-08-02T12:20:44;4.18;;;2.47;;
15258;SDS011;34462;51.368;12.364;2022-08-02T12:23:12;3.15;;;2.42;;
15258;SDS011;34462;51.368;12.364;2022-08-02T12:25:40;3.85;;;2.53;;
15258;SDS011;34462;51.368;12.364;2022-08-02T12:28:17;3.45;;;2.90;;
15258;SDS011;34462;51.368;12.364;2022-08-02T12:30:48;3.92;;;2.55;;
15258;SDS011;34462;51.368;12.364;2022-08-02T12:33:19;2.88;;;2.30;;
15258;SDS011;34462;51.368;12.364;2022-08-02T12:35:48;2.35;;;2.00;;
15258;SDS011;34462;51.368;12.364;2022-08-02T12:38:17;2.47;;;2.25;;
15258;SDS011;34462;51.368;12.364;2022-08-02T12:40:46;3.58;;;2.30;;
15258;SDS011;34462;51.368;12.364;2022-08-02T12:43:17;3.40;;;2.30;;
15258;SDS011;34462;51.368;12.364;2022-08-02T12:45:48;2.78;;;2.28;;
15258;SDS011;34462;51.368;12.364;2022-08-02T12:48:32;3.10;;;2.50;;
15258;SDS011;34462;51.368;12.364;2022-08-02T12:51:22;3.53;;;2.22;;
15258;SDS011;34462;51.368;12.364;2022-08-02T12:54:14;2.92;;;2.10;;
15258;SDS011;34462;51.368;12.364;2022-08-02T12:56:57;2.90;;;2.30;;
15258;SDS011;34462;51.368;12.364;2022-08-02T12:59:39;3.72;;;2.15;;
15258;SDS011;34462;51.368;12.364;2022-08-02T13:02:10;3.88;;;2.50;;
15258;SDS011;34462;51.368;12.364;2022-08-02T13:04:42;3.30;;;2.13;;
15258;SDS011;34462;51.368;12.364;2022-08-02T13:07:16;2.80;;;1.90;;
15258;SDS011;34462;51.368;12.364;2022-08-02T13:09:44;3.85;;;2.35;;
15258;SDS011;34462;51.368;12.364;2022-08-02T13:12:13;4.32;;;2.22;;
15258;SDS011;34462;51.368;12.364;2022-08-02T13:14:44;5.53;;;2.50;;
15258;SDS011;34462;51.368;12.364;2022-08-02T13:17:12;2.70;;;2.13;;
15258;SDS011;34462;51.368;12.364;2022-08-02T13:19:40;2.45;;;2.10;;
15258;SDS011;34462;51.368;12.364;2022-08-02T13:22:08;2.53;;;2.08;;
15258;SDS011;34462;51.368;12.364;2022-08-02T13:24:36;5.35;;;1.92;;
15258;SDS011;34462;51.368;12.364;2022-08-02T13:27:23;4.03;;;2.10;;
15258;SDS011;34462;51.368;12.364;2022-08-02T13:29:56;2.58;;;2.22;;
15258;SDS011;34462;51.368;12.364;2022-08-02T13:32:25;3.45;;;2.20;;
15258;SDS011;34462;51.368;12.364;2022-08-02T13:34:54;3.03;;;2.25;;
15258;SDS011;34462;51.368;12.364;2022-08-02T13:37:23;4.18;;;2.30;;
15258;SDS011;34462;51.368;12.364;2022-08-02T13:39:52;3.53;;;2.08;;
15258;SDS011;34462;51.368;12.364;2022-08-02T13:42:40;4.00;;;2.40;;
15258;SDS011;34462;51.368;12.364;2022-08-02T13:45:10;2.85;;;2.10;;
15258;SDS011;34462;51.368;12.364;2022-08-02T13:47:40;2.30;;;2.10;;
15258;SDS011;34462;51.368;12.364;2022-08-02T13:50:28;4.28;;;2.10;;
15258;SDS011;34462;51.368;12.364;2022-08-02T13:52:56;2.80;;;2.00;;
15258;SDS011;34462;51.368;12.364;2022-08-02T13:55:24;3.53;;;2.25;;
15258;SDS011;34462;51.368;12.364;2022-08-02T13:57:53;2.80;;;2.38;;
15258;SDS011;34462;51.368;12.364;2022-08-02T14:00:22;3.33;;;2.40;;
15258;SDS011;34462;51.368;12.364;2022-08-02T14:03:01;4.28;;;2.42;;
15258;SDS011;34462;51.368;12.364;2022-08-02T14:05:31;2.42;;;2.20;;
15258;SDS011;34462;51.368;12.364;2022-08-02T14:08:13;2.97;;;2.20;;
15258;SDS011;34462;51.368;12.364;2022-08-02T14:10:43;2.63;;;2.03;;
15258;SDS011;34462;51.368;12.364;2022-08-02T14:13:12;3.58;;;2.30;;
15258;SDS011;34462;51.368;12.364;2022-08-02T14:15:42;3.63;;;2.20;;
15258;SDS011;34462;51.368;12.364;2022-08-02T14:18:11;2.88;;;2.25;;
15258;SDS011;34462;51.368;12.364;2022-08-02T14:20:40;2.47;;;1.95;;
15258;SDS011;34462;51.368;12.364;2022-08-02T14:23:10;3.05;;;2.15;;
15258;SDS011;34462;51.368;12.364;2022-08-02T14:25:38;2.10;;;1.83;;
15258;SDS011;34462;51.368;12.364;2022-08-02T14:28:07;2.05;;;1.85;;
15258;SDS011;34462;51.368;12.364;2022-08-02T14:30:35;2.80;;;2.00;;
15258;SDS011;34462;51.368;12.364;2022-08-02T14:33:04;3.28;;;1.88;;
15258;SDS011;34462;51.368;12.364;2022-08-02T14:35:32;3.15;;;2.10;;
15258;SDS011;34462;51.368;12.364;2022-08-02T14:38:00;2.67;;;2.17;;
15258;SDS011;34462;51.368;12.364;2022-08-02T14:40:28;2.58;;;2.10;;
15258;SDS011;34462;51.368;12.364;2022-08-02T14:42:57;2.60;;;2.03;;
15258;SDS011;34462;51.368;12.364;2022-08-02T14:45:27;2.67;;;2.00;;
15258;SDS011;34462;51.368;12.364;2022-08-02T14:48:07;2.78;;;1.95;;
15258;SDS011;34462;51.368;12.364;2022-08-02T14:50:36;3.22;;;1.92;;
15258;SDS011;34462;51.368;12.364;2022-08-02T14:53:05;2.25;;;2.05;;
15258;SDS011;34462;51.368;12.364;2022-08-02T14:55:38;3.92;;;2.00;;
15258;SDS011;34462;51.368;12.364;2022-08-02T14:58:07;5.15;;;2.00;;
15258;SDS011;34462;51.368;12.364;2022-08-02T15:00:36;2.10;;;1.98;;
15258;SDS011;34462;51.368;12.364;2022-08-02T15:03:08;2.58;;;2.10;;
15258;SDS011;34462;51.368;12.364;2022-08-02T15:05:37;2.63;;;2.03;;
15258;SDS011;34462;51.368;12.364;2022-08-02T15:08:06;8.32;;;2.78;;
15258;SDS011;34462;51.368;12.364;2022-08-02T15:10:34;2.13;;;1.95;;
15258;SDS011;34462;51.368;12.364;2022-08-02T15:13:02;2.45;;;2.10;;